Time;durP1;ratioP1;P1;durP2;ratioP2;P2;SDS_P1;SDS_P2;PMS_P1;PMS_P2;Temp;Humidity;BMP_temperature;BMP_pressure;BME280_temperature;BME280_humidity;BME280_pressure;Samples;Min_cycle;Max_cycle;Signal;HPM_P1;HPM_P2
2022/01/25 00:08:24;;;;;;;21.77;15.82;;;4.50;99.90;;;;;;5114771;28;20662;-55
2022/01/25 00:28:26;;;;;;;22.38;17.38;;;4.60;99.90;;;;;;5114537;28;20168;-54
2022/01/25 00:33:31;;;;;;;22.27;17.23;;;4.60;99.90;;;;;;5114085;28;20574;-49
2022/01/25 00:35:57;;;;;;;22.45;16.23;;;4.60;99.90;;;;;;5114462;28;20176;-51
2022/01/25 00:38:23;;;;;;;22.77;14.48;;;4.60;99.90;;;;;;5114047;28;20161;-49
2022/01/25 00:40:49;;;;;;;23.63;14.38;;;4.50;99.90;;;;;;5114028;28;20161;-49
2022/01/25 00:43:14;;;;;;;20.60;14.50;;;4.60;99.90;;;;;;5113850;28;20205;-49
2022/01/25 00:45:40;;;;;;;19.33;14.68;;;4.50;99.90;;;;;;5114210;28;20255;-53
2022/01/25 00:48:08;;;;;;;15.93;12.50;;;4.50;99.90;;;;;;5113847;28;20207;-54
2022/01/25 00:50:41;;;;;;;19.52;14.95;;;4.40;99.90;;;;;;5113872;28;20160;-51
2022/01/25 00:55:34;;;;;;;20.83;14.80;;;4.60;99.90;;;;;;5114104;28;20210;-51
2022/01/25 00:58:01;;;;;;;26.63;15.23;;;4.40;99.90;;;;;;5113680;28;20168;-53
2022/01/25 01:00:27;;;;;;;21.88;14.30;;;4.40;99.90;;;;;;5113924;28;20207;-53
2022/01/25 01:02:54;;;;;;;21.02;13.45;;;4.40;99.90;;;;;;5113495;28;20246;-51
2022/01/25 01:05:21;;;;;;;20.13;14.05;;;4.40;99.90;;;;;;5113490;28;20169;-53
2022/01/25 01:07:47;;;;;;;21.60;15.70;;;4.50;99.90;;;;;;5113344;28;20168;-54
2022/01/25 01:10:16;;;;;;;20.40;14.55;;;4.50;99.90;;;;;;5113573;28;20192;-53
2022/01/25 01:15:28;;;;;;;19.42;14.15;;;4.50;99.90;;;;;;5113691;28;20189;-49
2022/01/25 01:37:15;;;;;;;24.40;16.20;;;4.50;99.90;;;;;;5112994;28;20240;-47
2022/01/25 01:40:12;;;;;;;21.85;15.07;;;4.50;99.90;;;;;;5112761;28;20176;-48
2022/01/25 01:47:42;;;;;;;21.15;15.57;;;4.40;99.90;;;;;;5112852;28;20183;-47
2022/01/25 01:50:13;;;;;;;19.50;14.45;;;4.50;99.90;;;;;;5113081;28;20191;-49
2022/01/25 01:52:38;;;;;;;19.60;15.25;;;4.50;99.90;;;;;;5113006;28;20183;-47
2022/01/25 01:55:05;;;;;;;20.33;14.75;;;4.60;99.90;;;;;;5094516;28;20164;-46
2022/01/25 01:57:31;;;;;;;20.40;15.45;;;4.50;99.90;;;;;;5112676;28;20639;-49
2022/01/25 01:59:57;;;;;;;19.58;15.25;;;4.60;99.90;;;;;;5112919;28;20177;-47
2022/01/25 02:02:22;;;;;;;23.60;16.63;;;4.60;99.90;;;;;;5112531;28;20236;-46
2022/01/25 02:04:48;;;;;;;21.17;15.48;;;4.50;99.90;;;;;;5112572;28;20196;-46
2022/01/25 02:07:13;;;;;;;24.25;16.58;;;4.50;99.90;;;;;;5112601;28;20172;-47
2022/01/25 02:09:39;;;;;;;20.02;15.13;;;4.50;99.90;;;;;;5112479;28;20164;-47
2022/01/25 02:12:05;;;;;;;19.73;16.27;;;4.60;99.90;;;;;;5112584;28;20242;-50
2022/01/25 02:14:35;;;;;;;25.17;16.42;;;4.60;99.90;;;;;;5112502;28;20183;-49
2022/01/25 02:17:10;;;;;;;18.85;15.48;;;4.60;99.90;;;;;;5112376;28;20612;-49
2022/01/25 02:22:40;;;;;;;28.20;18.35;;;4.70;99.90;;;;;;5112500;28;20253;-49
2022/01/25 02:25:06;;;;;;;20.20;15.75;;;4.70;99.90;;;;;;5111828;28;20176;-47
2022/01/25 02:27:32;;;;;;;22.10;16.85;;;4.70;99.90;;;;;;5112298;28;20259;-48
2022/01/25 02:29:57;;;;;;;25.10;17.52;;;4.70;99.90;;;;;;5112943;28;20169;-49
2022/01/25 02:32:23;;;;;;;20.73;15.98;;;4.60;99.90;;;;;;5112290;28;20173;-47
2022/01/25 02:34:49;;;;;;;20.77;17.50;;;4.70;99.90;;;;;;5112260;28;20617;-46
2022/01/25 02:37:16;;;;;;;22.88;16.73;;;4.60;99.90;;;;;;5112167;28;20176;-48
2022/01/25 02:39:43;;;;;;;23.83;17.08;;;4.70;99.90;;;;;;5112429;28;20267;-47
2022/01/25 02:42:11;;;;;;;23.10;17.33;;;4.70;99.90;;;;;;5112118;28;20195;-50
2022/01/25 02:44:37;;;;;;;23.05;16.80;;;4.70;99.90;;;;;;5112298;28;20191;-48
2022/01/25 02:49:48;;;;;;;21.73;16.70;;;4.70;99.90;;;;;;5112386;28;20635;-48
2022/01/25 02:52:14;;;;;;;21.05;16.88;;;4.60;99.90;;;;;;5112121;28;20163;-48
2022/01/25 02:54:41;;;;;;;22.25;16.40;;;4.70;99.90;;;;;;5112111;28;20585;-48
2022/01/25 02:57:07;;;;;;;26.33;17.38;;;4.70;99.90;;;;;;5113740;28;20180;-47
2022/01/25 02:59:32;;;;;;;19.88;16.40;;;4.60;99.90;;;;;;5116287;28;20215;-46
2022/01/25 03:01:58;;;;;;;23.35;17.10;;;4.60;99.90;;;;;;5116192;28;20232;-46
2022/01/25 03:04:23;;;;;;;22.75;18.05;;;4.60;99.90;;;;;;5115910;28;20683;-46
2022/01/25 03:06:50;;;;;;;23.27;18.30;;;4.70;99.90;;;;;;5115846;28;20247;-49
2022/01/25 03:09:15;;;;;;;23.08;18.38;;;4.70;99.90;;;;;;5115776;28;20187;-49
2022/01/25 03:11:44;;;;;;;28.67;18.73;;;4.70;99.90;;;;;;5115566;28;20212;-46
2022/01/25 03:14:11;;;;;;;20.48;16.58;;;4.80;99.90;;;;;;5115653;28;20671;-49
2022/01/25 03:16:44;;;;;;;23.92;18.08;;;4.70;99.90;;;;;;5116085;28;20292;-48
2022/01/25 03:22:06;;;;;;;25.60;18.00;;;4.80;99.90;;;;;;5116088;28;20199;-46
2022/01/25 03:24:32;;;;;;;25.35;19.15;;;4.70;99.90;;;;;;5115741;28;20176;-49
2022/01/25 03:26:58;;;;;;;28.40;19.50;;;4.70;99.90;;;;;;5115875;28;20192;-50
2022/01/25 03:29:23;;;;;;;25.10;18.83;;;4.70;99.90;;;;;;5115453;28;20198;-49
2022/01/25 03:31:49;;;;;;;28.20;19.63;;;4.70;99.90;;;;;;5115405;28;20164;-50
2022/01/25 03:34:15;;;;;;;24.02;18.23;;;4.70;99.90;;;;;;5115373;28;20171;-51
2022/01/25 03:36:42;;;;;;;27.95;19.42;;;4.70;99.90;;;;;;5115344;28;20177;-52
2022/01/25 03:39:08;;;;;;;28.38;20.45;;;4.70;99.90;;;;;;5115152;28;20703;-51
2022/01/25 03:41:34;;;;;;;26.25;19.70;;;4.70;99.90;;;;;;5096850;28;20251;-49
2022/01/25 03:44:00;;;;;;;24.65;19.52;;;4.70;99.90;;;;;;5115418;28;20176;-52
2022/01/25 03:51:38;;;;;;;25.00;18.27;;;4.70;99.90;;;;;;5114975;28;20175;-48
2022/01/25 03:54:04;;;;;;;25.27;18.83;;;4.70;99.90;;;;;;5114974;28;20161;-52
2022/01/25 03:56:30;;;;;;;27.17;19.40;;;4.70;99.90;;;;;;5115134;28;20181;-48
2022/01/25 03:58:56;;;;;;;27.25;19.63;;;4.80;99.90;;;;;;5115116;28;20190;-49
2022/01/25 04:01:22;;;;;;;27.88;19.20;;;4.70;99.90;;;;;;5114639;28;20627;-49
2022/01/25 04:03:58;;;;;;;28.35;19.23;;;4.80;99.90;;;;;;5114767;28;20252;-50
2022/01/25 04:06:29;;;;;;;26.50;20.45;;;4.80;99.90;;;;;;5114927;28;20175;-52
2022/01/25 04:08:54;;;;;;;25.27;18.80;;;4.80;99.90;;;;;;5115242;28;20172;-47
2022/01/25 04:11:20;;;;;;;26.95;18.88;;;4.80;99.90;;;;;;5096208;28;20219;-49
2022/01/25 04:13:45;;;;;;;24.42;18.30;;;4.90;99.90;;;;;;5114870;28;20165;-51
2022/01/25 04:16:17;;;;;;;28.70;19.73;;;4.80;99.90;;;;;;5114502;28;20244;-50
2022/01/25 04:19:31;;;;;;;25.17;18.88;;;4.80;99.90;;;;;;5114409;28;20200;-49
2022/01/25 04:26:42;;;;;;;26.50;18.77;;;4.70;99.90;;;;;;5114388;28;20225;-56
2022/01/25 04:29:07;;;;;;;29.35;21.13;;;4.70;99.90;;;;;;5096022;28;20623;-55
2022/01/25 04:31:35;;;;;;;28.80;20.02;;;4.70;99.90;;;;;;5114282;28;20222;-54
2022/01/25 04:34:26;;;;;;;30.92;20.77;;;4.70;99.90;;;;;;5114225;28;20175;-55
2022/01/25 04:55:43;;;;;;;28.73;19.85;;;4.80;99.90;;;;;;5114113;28;20165;-50
2022/01/25 04:58:16;;;;;;;26.20;19.60;;;4.70;99.90;;;;;;5113888;28;20168;-50
2022/01/25 05:00:42;;;;;;;31.27;20.35;;;4.70;99.90;;;;;;5113887;28;20161;-53
2022/01/25 05:03:15;;;;;;;27.88;20.05;;;4.70;99.90;;;;;;5095213;28;20578;-53
2022/01/25 05:05:58;;;;;;;29.98;20.88;;;4.80;99.90;;;;;;5113425;28;20643;-51
2022/01/25 05:16:46;;;;;;;29.48;19.10;;;4.70;99.90;;;;;;5113665;28;20200;-54
2022/01/25 05:22:05;;;;;;;31.30;19.48;;;4.70;99.90;;;;;;5113451;28;20189;-51
2022/01/25 05:24:36;;;;;;;26.98;17.75;;;4.60;99.90;;;;;;5113384;28;20172;-55
2022/01/25 05:27:03;;;;;;;27.70;18.42;;;4.50;99.90;;;;;;5113218;28;20208;-49
2022/01/25 05:29:29;;;;;;;31.58;18.50;;;4.40;99.90;;;;;;5113711;28;20611;-47
2022/01/25 05:31:56;;;;;;;28.85;17.95;;;4.40;99.90;;;;;;5113366;28;20173;-48
2022/01/25 05:34:22;;;;;;;29.05;17.80;;;4.30;99.90;;;;;;5113328;28;20165;-50
2022/01/25 05:36:47;;;;;;;32.72;18.67;;;4.30;99.90;;;;;;5112932;28;20173;-50
2022/01/25 05:39:18;;;;;;;33.15;18.02;;;4.30;99.90;;;;;;5113231;28;20188;-49
2022/01/25 05:41:53;;;;;;;30.45;18.23;;;4.30;99.90;;;;;;5113039;28;20188;-50
2022/01/25 05:44:41;;;;;;;32.22;17.63;;;4.30;99.90;;;;;;5113044;28;20675;-51
2022/01/25 05:47:07;;;;;;;37.78;19.17;;;4.30;99.90;;;;;;5112608;28;20629;-50
2022/01/25 05:49:37;;;;;;;35.90;18.35;;;4.30;99.90;;;;;;5112436;28;20632;-47
2022/01/25 05:52:04;;;;;;;28.92;17.88;;;4.30;99.90;;;;;;5112449;28;20705;-49
2022/01/25 05:54:30;;;;;;;39.80;19.60;;;4.30;99.90;;;;;;5112536;28;20184;-51
2022/01/25 05:56:56;;;;;;;31.55;18.17;;;4.30;99.90;;;;;;5112872;28;20161;-50
2022/01/25 05:59:21;;;;;;;30.33;18.40;;;4.30;99.90;;;;;;5112879;28;20165;-51
2022/01/25 06:01:48;;;;;;;36.13;19.02;;;4.30;99.90;;;;;;5112541;28;20597;-50
2022/01/25 06:04:14;;;;;;;28.25;16.90;;;4.20;99.90;;;;;;5112815;28;20252;-50
2022/01/25 06:06:39;;;;;;;26.63;17.27;;;4.30;99.90;;;;;;5112751;28;20584;-53
2022/01/25 06:09:05;;;;;;;29.88;18.88;;;4.30;99.90;;;;;;5112826;28;20169;-50
2022/01/25 06:11:30;;;;;;;30.77;17.27;;;4.30;99.90;;;;;;5112411;28;20213;-54
2022/01/25 06:13:56;;;;;;;26.73;17.50;;;4.30;99.90;;;;;;5113107;28;20615;-54
2022/01/25 06:16:22;;;;;;;27.52;16.88;;;4.20;99.90;;;;;;5112507;28;20171;-48
2022/01/25 06:18:47;;;;;;;28.13;17.88;;;4.20;99.90;;;;;;5112381;28;20172;-50
2022/01/25 06:21:13;;;;;;;30.65;18.05;;;4.00;99.90;;;;;;5094262;28;20168;-49
2022/01/25 06:23:39;;;;;;;25.35;17.58;;;4.00;99.90;;;;;;5112681;28;20200;-49
2022/01/25 06:26:04;;;;;;;32.15;17.90;;;4.00;99.90;;;;;;5112509;28;20527;-52
2022/01/25 06:28:31;;;;;;;28.05;18.02;;;3.90;99.90;;;;;;5094123;28;20180;-51
2022/01/25 06:30:56;;;;;;;30.08;18.42;;;4.10;99.90;;;;;;5114420;28;20168;-48
2022/01/25 06:33:22;;;;;;;28.58;17.83;;;4.00;99.90;;;;;;5116549;28;20167;-53
2022/01/25 06:35:49;;;;;;;28.45;17.65;;;4.10;99.90;;;;;;5116345;28;20176;-49
2022/01/25 06:38:14;;;;;;;27.92;17.15;;;4.00;99.90;;;;;;5116494;28;20596;-52
2022/01/25 06:40:40;;;;;;;29.23;18.27;;;3.90;99.90;;;;;;5098173;28;20268;-53
2022/01/25 06:43:06;;;;;;;28.95;17.40;;;3.90;99.90;;;;;;5098174;28;20211;-50
2022/01/25 06:45:32;;;;;;;29.50;17.40;;;3.90;99.90;;;;;;5116567;28;20208;-53
2022/01/25 06:47:57;;;;;;;28.02;17.55;;;3.80;99.90;;;;;;5116702;28;20247;-52
2022/01/25 06:50:23;;;;;;;27.50;16.90;;;3.90;99.90;;;;;;5116291;28;20168;-50
2022/01/25 06:52:50;;;;;;;31.33;17.25;;;3.90;99.90;;;;;;5116326;28;20177;-54
2022/01/25 06:55:18;;;;;;;26.80;16.10;;;4.00;99.90;;;;;;5116122;28;20176;-52
2022/01/25 06:57:44;;;;;;;31.23;17.83;;;4.00;99.90;;;;;;5116368;28;20184;-53
2022/01/25 07:00:16;;;;;;;31.85;18.70;;;4.00;99.90;;;;;;5116104;28;20164;-50
2022/01/25 07:02:42;;;;;;;32.55;17.35;;;4.00;99.90;;;;;;5115886;28;20207;-51
2022/01/25 07:05:08;;;;;;;31.58;17.15;;;3.90;99.90;;;;;;5116022;28;20168;-51
2022/01/25 07:07:34;;;;;;;28.15;17.92;;;4.00;99.90;;;;;;5115903;28;20647;-52
2022/01/25 07:10:00;;;;;;;28.38;17.67;;;3.90;99.90;;;;;;5115747;28;20279;-53
2022/01/25 07:12:26;;;;;;;29.77;17.48;;;4.00;99.90;;;;;;5115945;28;20294;-53
2022/01/25 07:14:51;;;;;;;27.38;17.20;;;3.90;99.90;;;;;;5115796;28;20168;-54
2022/01/25 07:17:18;;;;;;;30.73;17.40;;;3.90;99.90;;;;;;5115782;28;20177;-48
2022/01/25 07:19:43;;;;;;;36.65;18.58;;;3.90;99.90;;;;;;5097407;28;20703;-51
2022/01/25 07:22:09;;;;;;;31.17;17.45;;;3.90;99.90;;;;;;5115593;28;20284;-52
2022/01/25 07:24:34;;;;;;;31.65;18.58;;;4.00;99.90;;;;;;5115646;28;20172;-51
2022/01/25 07:27:00;;;;;;;31.88;16.85;;;4.00;99.90;;;;;;5115518;28;20172;-49
2022/01/25 07:29:27;;;;;;;31.30;17.52;;;3.90;99.90;;;;;;5115779;28;20632;-53
2022/01/25 07:31:53;;;;;;;32.63;18.33;;;3.90;99.90;;;;;;5115414;28;20169;-48
2022/01/25 07:34:18;;;;;;;31.80;17.08;;;3.90;99.90;;;;;;5115264;28;20171;-49
2022/01/25 07:36:44;;;;;;;35.55;18.10;;;3.90;99.90;;;;;;5096982;28;20165;-50
2022/01/25 07:39:10;;;;;;;31.88;17.35;;;3.90;99.90;;;;;;5115542;28;20613;-49
2022/01/25 07:41:37;;;;;;;31.80;17.02;;;3.80;99.90;;;;;;5115271;28;20510;-48
2022/01/25 07:44:03;;;;;;;33.08;18.15;;;3.90;99.90;;;;;;5114549;28;20179;-50
2022/01/25 07:46:29;;;;;;;31.70;18.48;;;3.80;99.90;;;;;;5115411;28;20172;-48
2022/01/25 07:48:56;;;;;;;27.95;17.23;;;3.90;99.90;;;;;;5115703;28;20172;-49
2022/01/25 07:51:21;;;;;;;32.03;18.33;;;3.80;99.90;;;;;;5115134;28;20189;-48
2022/01/25 07:53:47;;;;;;;33.58;18.65;;;3.90;99.90;;;;;;5114969;28;20245;-47
2022/01/25 07:56:13;;;;;;;31.52;18.48;;;3.90;99.90;;;;;;5115249;28;20172;-51
2022/01/25 07:58:38;;;;;;;32.20;17.45;;;3.90;99.90;;;;;;5114845;28;20171;-48
2022/01/25 08:01:05;;;;;;;38.78;17.83;;;3.90;99.90;;;;;;5114864;28;20161;-48
2022/01/25 08:03:31;;;;;;;34.00;17.92;;;3.90;99.90;;;;;;5114866;28;20204;-48
2022/01/25 08:05:56;;;;;;;34.05;17.67;;;3.90;99.90;;;;;;5115148;28;20164;-48
2022/01/25 08:08:22;;;;;;;29.75;17.77;;;3.80;99.90;;;;;;5114743;28;20230;-48
2022/01/25 08:10:48;;;;;;;35.15;18.15;;;3.90;99.90;;;;;;5114931;28;20161;-54
2022/01/25 08:13:14;;;;;;;33.72;17.63;;;3.90;99.90;;;;;;5114437;28;20247;-52
2022/01/25 08:15:39;;;;;;;34.45;17.05;;;4.00;99.90;;;;;;5114841;28;20271;-48
2022/01/25 08:18:05;;;;;;;32.28;18.17;;;4.10;99.90;;;;;;5114542;28;20616;-49
2022/01/25 08:20:31;;;;;;;35.97;18.60;;;4.10;99.90;;;;;;5114483;28;20672;-48
2022/01/25 08:22:57;;;;;;;31.45;18.08;;;4.10;99.90;;;;;;5114995;28;20231;-48
2022/01/25 08:25:22;;;;;;;39.10;20.85;;;4.00;99.90;;;;;;5114421;28;20177;-51
2022/01/25 08:27:48;;;;;;;45.47;26.17;;;4.00;99.90;;;;;;5114694;28;20663;-48
2022/01/25 08:30:14;;;;;;;42.08;22.85;;;4.00;99.90;;;;;;5114364;28;20209;-48
2022/01/25 08:32:40;;;;;;;37.10;20.08;;;4.10;99.90;;;;;;5114261;28;20221;-52
2022/01/25 08:35:06;;;;;;;30.70;18.40;;;4.10;99.90;;;;;;5114221;28;20251;-49
2022/01/25 08:37:32;;;;;;;35.35;20.17;;;4.10;99.90;;;;;;5114142;28;20193;-48
2022/01/25 08:39:57;;;;;;;37.92;19.73;;;4.10;99.90;;;;;;5114409;28;20176;-48
2022/01/25 08:42:23;;;;;;;35.38;18.85;;;4.10;99.90;;;;;;5114025;28;20199;-50
2022/01/25 08:44:49;;;;;;;34.70;18.50;;;4.10;99.90;;;;;;5114069;28;20249;-49
2022/01/25 08:47:15;;;;;;;33.63;18.23;;;4.10;99.90;;;;;;5112030;28;20258;-47
2022/01/25 08:49:41;;;;;;;37.22;18.70;;;4.10;99.90;;;;;;5119915;27;20267;-47
2022/01/25 08:52:06;;;;;;;42.30;19.25;;;4.20;99.90;;;;;;5133507;27;20176;-45
2022/01/25 08:54:33;;;;;;;40.53;19.85;;;4.30;99.90;;;;;;5132026;27;20217;-52
2022/01/25 08:56:59;;;;;;;45.53;20.45;;;4.10;99.90;;;;;;5115004;27;20200;-51
2022/01/25 08:59:24;;;;;;;39.35;19.35;;;4.20;99.90;;;;;;5133519;27;20191;-45
2022/01/25 09:01:50;;;;;;;39.22;20.55;;;4.20;99.90;;;;;;5133239;27;20234;-48
2022/01/25 09:04:16;;;;;;;39.17;19.30;;;4.20;99.90;;;;;;5133055;27;20179;-47
2022/01/25 09:06:41;;;;;;;35.13;18.25;;;4.10;99.90;;;;;;5133015;27;20175;-55
2022/01/25 09:09:09;;;;;;;40.65;19.98;;;4.10;99.90;;;;;;5132914;27;20619;-55
2022/01/25 09:11:36;;;;;;;43.42;20.90;;;4.20;99.90;;;;;;5132752;27;20330;-54
2022/01/25 09:14:03;;;;;;;51.67;23.67;;;4.10;99.90;;;;;;5132814;27;20243;-59
2022/01/25 09:16:28;;;;;;;38.92;21.00;;;4.10;99.90;;;;;;5133055;27;20164;-50
2022/01/25 09:18:54;;;;;;;53.95;22.58;;;4.10;99.90;;;;;;5133194;27;20694;-46
2022/01/25 09:21:19;;;;;;;44.83;20.48;;;4.20;99.90;;;;;;5114400;27;20196;-49
2022/01/25 09:23:45;;;;;;;45.30;22.30;;;4.20;99.90;;;;;;5132520;27;20562;-50
2022/01/25 09:26:10;;;;;;;46.03;21.13;;;4.30;99.90;;;;;;5132573;27;20254;-50
2022/01/25 09:28:36;;;;;;;43.00;20.55;;;4.20;99.90;;;;;;5132511;27;20495;-50
2022/01/25 09:31:02;;;;;;;46.78;19.77;;;4.20;99.90;;;;;;5132448;27;20175;-48
2022/01/25 09:33:28;;;;;;;42.45;21.67;;;4.30;99.90;;;;;;5132793;27;20160;-48
2022/01/25 09:35:55;;;;;;;48.42;22.15;;;4.30;99.90;;;;;;5132925;27;20164;-51
2022/01/25 09:38:21;;;;;;;40.33;22.08;;;4.20;99.90;;;;;;5132404;27;20176;-49
2022/01/25 09:40:46;;;;;;;43.28;20.60;;;4.30;99.90;;;;;;5113846;27;20179;-46
2022/01/25 09:43:12;;;;;;;41.45;19.30;;;4.30;99.90;;;;;;5132289;27;20204;-47
2022/01/25 09:45:39;;;;;;;42.50;19.60;;;4.20;99.90;;;;;;5132315;27;20216;-47
2022/01/25 09:48:06;;;;;;;42.33;21.88;;;4.30;99.90;;;;;;5132410;27;20503;-47
2022/01/25 09:50:32;;;;;;;40.20;20.48;;;4.30;99.90;;;;;;5131935;27;20245;-48
2022/01/25 09:53:00;;;;;;;49.88;22.45;;;4.30;99.90;;;;;;5132407;27;20204;-46
2022/01/25 09:55:26;;;;;;;46.88;21.27;;;4.40;99.90;;;;;;5132697;27;20176;-46
2022/01/25 09:57:52;;;;;;;42.88;21.58;;;4.40;99.90;;;;;;5132314;27;20241;-47
2022/01/25 10:00:24;;;;;;;46.10;21.50;;;4.40;99.90;;;;;;5132103;27;20294;-46
2022/01/25 10:03:09;;;;;;;39.50;20.98;;;4.40;99.90;;;;;;5132144;27;20215;-46
2022/01/25 10:05:38;;;;;;;40.72;21.15;;;4.40;99.90;;;;;;5131538;27;20658;-45
2022/01/25 10:08:29;;;;;;;34.05;19.67;;;4.40;99.90;;;;;;5132167;27;20178;-47
2022/01/25 10:11:01;;;;;;;47.33;22.27;;;4.50;99.90;;;;;;5114041;27;20167;-47
2022/01/25 10:13:28;;;;;;;43.92;21.17;;;4.50;99.90;;;;;;5132188;27;20255;-46
2022/01/25 10:16:03;;;;;;;43.30;21.70;;;4.50;99.90;;;;;;5132450;27;20174;-47
2022/01/25 10:18:46;;;;;;;39.20;21.10;;;4.60;99.90;;;;;;5132023;27;20194;-46
2022/01/25 10:21:16;;;;;;;39.47;20.33;;;4.60;99.90;;;;;;5131779;28;20519;-46
2022/01/25 10:23:58;;;;;;;41.47;21.35;;;4.60;99.90;;;;;;5131785;28;20235;-47
2022/01/25 10:26:24;;;;;;;48.20;21.58;;;4.70;99.90;;;;;;5113585;28;20623;-47
2022/01/25 10:28:51;;;;;;;45.53;22.52;;;4.70;99.90;;;;;;5131609;28;20175;-46
2022/01/25 10:31:17;;;;;;;58.10;22.02;;;4.80;99.90;;;;;;5131771;28;20156;-46
2022/01/25 10:33:51;;;;;;;45.75;21.23;;;4.70;99.90;;;;;;5131669;28;20166;-48
2022/01/25 10:36:20;;;;;;;63.80;27.10;;;4.70;99.90;;;;;;5131859;28;20634;-47
2022/01/25 10:38:47;;;;;;;49.35;23.30;;;4.70;99.90;;;;;;5131569;28;20683;-46
2022/01/25 10:41:16;;;;;;;48.90;21.08;;;4.70;99.90;;;;;;5131662;28;20172;-46
2022/01/25 10:43:44;;;;;;;46.80;22.52;;;4.70;99.90;;;;;;5113146;28;20203;-47
2022/01/25 10:46:31;;;;;;;54.67;22.80;;;4.60;99.90;;;;;;5131851;28;20193;-46
2022/01/25 10:49:10;;;;;;;51.83;20.80;;;4.60;99.90;;;;;;5131907;28;20179;-47
2022/01/25 10:51:39;;;;;;;46.78;21.27;;;5.30;99.90;;;;;;5131741;28;20571;-45
2022/01/25 10:54:23;;;;;;;59.08;26.13;;;4.60;99.90;;;;;;5131744;28;20168;-45
2022/01/25 10:56:57;;;;;;;58.13;24.15;;;4.60;99.90;;;;;;5131409;28;20168;-48
2022/01/25 10:59:24;;;;;;;64.35;27.73;;;4.70;99.90;;;;;;5131451;28;20171;-46
2022/01/25 11:01:57;;;;;;;45.20;21.90;;;4.70;99.90;;;;;;5131606;28;20165;-46
2022/01/25 11:04:31;;;;;;;61.30;25.05;;;4.70;99.90;;;;;;5131206;28;20171;-46
2022/01/25 11:07:10;;;;;;;45.33;21.73;;;4.80;99.90;;;;;;5131905;28;20348;-46
2022/01/25 11:09:41;;;;;;;46.47;21.83;;;4.70;99.90;;;;;;5131588;28;20198;-46
2022/01/25 11:12:11;;;;;;;46.13;21.40;;;4.70;99.90;;;;;;5131270;28;20250;-48
2022/01/25 11:14:50;;;;;;;45.63;23.20;;;4.70;99.90;;;;;;5131417;28;20175;-48
2022/01/25 11:17:16;;;;;;;43.35;20.17;;;4.80;99.90;;;;;;5131735;27;20172;-46
2022/01/25 11:19:41;;;;;;;41.80;19.67;;;4.60;99.90;;;;;;5115691;27;20179;-46
2022/01/25 11:22:10;;;;;;;42.40;19.45;;;4.70;99.90;;;;;;5114490;28;20200;-46
2022/01/25 11:24:38;;;;;;;49.17;22.98;;;4.70;99.90;;;;;;5114690;28;20164;-46
2022/01/25 11:27:05;;;;;;;42.47;20.52;;;4.80;99.90;;;;;;5114113;28;20169;-46
2022/01/25 11:29:35;;;;;;;43.70;20.65;;;4.90;99.90;;;;;;5114356;28;20176;-46
2022/01/25 11:32:10;;;;;;;48.13;20.83;;;4.80;99.90;;;;;;5113928;28;20188;-45
2022/01/25 11:34:38;;;;;;;37.47;19.48;;;4.80;99.90;;;;;;5114466;28;20180;-46
2022/01/25 11:37:07;;;;;;;46.58;22.13;;;4.80;99.90;;;;;;5114172;28;20187;-46
2022/01/25 11:39:35;;;;;;;34.70;18.75;;;4.80;99.90;;;;;;5114168;28;20628;-47
2022/01/25 11:42:06;;;;;;;38.45;19.50;;;4.90;99.90;;;;;;5094544;28;20775;-46
2022/01/25 11:44:33;;;;;;;38.63;20.50;;;4.80;99.90;;;;;;5114383;28;20260;-46
2022/01/25 11:47:06;;;;;;;42.95;20.63;;;4.90;99.90;;;;;;5114393;28;20244;-46
2022/01/25 11:49:32;;;;;;;43.15;24.17;;;5.10;99.90;;;;;;5114096;28;20203;-46
2022/01/25 11:52:13;;;;;;;40.17;20.42;;;5.00;99.90;;;;;;5114060;28;20212;-46
2022/01/25 11:54:40;;;;;;;40.17;21.33;;;5.00;99.90;;;;;;5113058;28;20210;-46
2022/01/25 11:57:15;;;;;;;47.25;21.88;;;5.10;99.90;;;;;;5095246;28;20172;-47
2022/01/25 11:59:42;;;;;;;41.55;20.88;;;5.00;99.90;;;;;;5113682;28;20191;-51
2022/01/25 12:02:08;;;;;;;42.83;20.63;;;4.90;99.90;;;;;;5113976;28;20227;-46
2022/01/25 12:04:34;;;;;;;41.35;20.35;;;5.00;99.90;;;;;;5113624;28;20165;-48
2022/01/25 12:07:03;;;;;;;40.05;21.08;;;5.00;99.90;;;;;;5113900;28;20157;-47
2022/01/25 12:09:46;;;;;;;49.15;21.02;;;5.10;99.90;;;;;;5113873;28;20165;-47
2022/01/25 12:12:14;;;;;;;39.08;19.63;;;5.00;99.90;;;;;;5113379;28;20227;-50
2022/01/25 12:14:40;;;;;;;43.72;20.95;;;5.10;99.90;;;;;;5113660;28;20169;-48
2022/01/25 12:17:06;;;;;;;43.03;20.60;;;5.00;99.90;;;;;;5113794;28;20171;-49
2022/01/25 12:19:54;;;;;;;45.90;20.38;;;5.00;99.90;;;;;;5113347;28;20160;-46
2022/01/25 12:22:33;;;;;;;45.60;20.38;;;5.10;99.90;;;;;;5112652;28;20641;-46
2022/01/25 12:25:26;;;;;;;38.88;21.58;;;5.10;99.90;;;;;;5113722;28;20176;-45
2022/01/25 12:27:58;;;;;;;40.40;19.58;;;5.10;99.90;;;;;;5113470;28;20172;-49
2022/01/25 12:30:33;;;;;;;43.17;18.27;;;5.10;99.90;;;;;;5113182;28;20175;-45
2022/01/25 12:33:18;;;;;;;41.15;19.80;;;5.10;99.90;;;;;;5113678;28;20515;-48
2022/01/25 12:35:50;;;;;;;43.95;20.08;;;5.10;99.90;;;;;;5113039;28;20176;-47
2022/01/25 12:38:20;;;;;;;45.15;21.52;;;5.00;99.90;;;;;;5113192;28;20259;-46
2022/01/25 12:40:57;;;;;;;42.53;19.20;;;5.00;99.90;;;;;;5112709;28;20508;-46
2022/01/25 12:43:35;;;;;;;46.53;19.33;;;5.00;99.90;;;;;;5113117;28;20215;-45
2022/01/25 12:46:08;;;;;;;39.65;19.08;;;4.90;99.90;;;;;;5112945;28;20203;-46
2022/01/25 12:48:42;;;;;;;39.38;20.35;;;4.90;99.90;;;;;;5094491;28;20530;-48
2022/01/25 12:51:10;;;;;;;40.13;19.00;;;4.90;99.90;;;;;;5113034;28;20273;-46
2022/01/25 12:53:39;;;;;;;42.42;18.00;;;4.90;99.90;;;;;;5112628;28;20526;-46
2022/01/25 12:56:10;;;;;;;36.88;19.17;;;4.90;99.90;;;;;;5112965;28;20179;-46
2022/01/25 12:58:37;;;;;;;42.00;19.23;;;4.80;99.90;;;;;;5112697;28;20168;-47
2022/01/25 13:01:07;;;;;;;46.50;21.90;;;4.80;99.90;;;;;;5112768;28;20165;-47
2022/01/25 13:03:40;;;;;;;50.40;22.95;;;4.90;99.90;;;;;;5112419;28;20206;-46
2022/01/25 13:06:09;;;;;;;47.15;21.90;;;4.90;99.90;;;;;;5112612;28;20160;-47
2022/01/25 13:08:36;;;;;;;46.67;22.58;;;4.90;99.90;;;;;;5112431;28;20161;-47
2022/01/25 13:11:28;;;;;;;49.55;21.05;;;4.80;99.90;;;;;;5112076;28;20172;-46
2022/01/25 13:14:00;;;;;;;43.05;22.20;;;4.80;99.90;;;;;;5112464;28;20177;-46
2022/01/25 13:16:45;;;;;;;58.50;26.30;;;4.90;99.90;;;;;;5112613;28;20573;-46
2022/01/25 13:19:12;;;;;;;44.47;22.02;;;5.00;99.90;;;;;;5112416;28;20184;-48
2022/01/25 13:21:44;;;;;;;52.03;22.77;;;4.80;99.90;;;;;;5112102;28;20214;-49
2022/01/25 13:24:13;;;;;;;51.13;22.00;;;4.90;99.90;;;;;;5112320;28;20184;-46
2022/01/25 13:27:14;;;;;;;52.90;22.20;;;4.90;99.90;;;;;;5093862;28;20731;-47
2022/01/25 13:32:32;;;;;;;48.38;22.33;;;4.90;99.90;;;;;;5112515;28;20194;-47
2022/01/25 13:35:26;;;;;;;50.80;23.75;;;4.90;99.90;;;;;;5112141;28;20687;-46
2022/01/25 13:38:02;;;;;;;49.78;25.98;;;4.90;99.90;;;;;;5111816;28;20172;-46
2022/01/25 13:40:35;;;;;;;50.83;26.83;;;4.80;99.90;;;;;;5093323;28;20627;-45
2022/01/25 13:43:29;;;;;;;42.30;21.58;;;4.80;99.90;;;;;;5111947;28;20215;-48
2022/01/25 13:45:57;;;;;;;45.40;21.85;;;4.90;99.90;;;;;;5111489;28;20197;-49
2022/01/25 13:48:24;;;;;;;42.58;21.13;;;4.90;99.90;;;;;;5093801;28;20171;-49
2022/01/25 13:50:55;;;;;;;44.28;23.02;;;4.90;99.90;;;;;;5111533;28;20665;-51
2022/01/25 13:53:21;;;;;;;51.10;22.55;;;4.90;99.90;;;;;;5111736;28;20197;-51
2022/01/25 13:55:49;;;;;;;46.95;21.77;;;4.80;99.90;;;;;;5111605;28;20172;-51
2022/01/25 13:58:34;;;;;;;45.03;20.88;;;4.80;99.90;;;;;;5111580;28;20168;-49
2022/01/25 14:01:03;;;;;;;50.70;23.75;;;4.90;99.90;;;;;;5110426;28;20589;-45
2022/01/25 14:03:32;;;;;;;50.05;23.27;;;4.90;99.90;;;;;;5111694;28;20217;-52
2022/01/25 14:05:58;;;;;;;58.97;21.65;;;4.90;99.90;;;;;;5111750;28;20190;-51
2022/01/25 14:08:43;;;;;;;51.08;23.63;;;4.80;99.90;;;;;;5111533;28;20172;-51
2022/01/25 14:21:38;;;;;;;40.63;22.02;;;4.90;99.90;;;;;;5111341;28;20165;-51
2022/01/25 14:22:53;;;;;;;52.67;23.90;;;5.00;99.90;;;;;;5111379;28;20294;-46
2022/01/25 14:25:39;;;;;;;47.58;22.13;;;5.00;99.90;;;;;;5111434;28;20172;-46
2022/01/25 14:28:11;;;;;;;42.70;21.30;;;5.00;99.90;;;;;;5111230;28;20164;-46
2022/01/25 14:30:42;;;;;;;52.58;23.90;;;5.00;99.90;;;;;;5111197;28;20532;-46
2022/01/25 14:33:14;;;;;;;48.20;23.67;;;4.90;99.90;;;;;;5111774;28;20518;-46
2022/01/25 14:35:50;;;;;;;54.72;23.33;;;4.90;99.90;;;;;;5110815;28;20528;-45
2022/01/25 14:38:21;;;;;;;54.72;23.98;;;4.90;99.90;;;;;;5111341;28;20500;-47
2022/01/25 14:41:05;;;;;;;49.83;23.80;;;4.90;99.90;;;;;;5111047;28;20160;-47
2022/01/25 14:43:36;;;;;;;52.53;24.00;;;5.00;99.90;;;;;;5111103;28;20235;-46